sensor_id;sensor_type;location;lat;lon;timestamp;pressure;altitude;pressure_sealevel;temperature;humidity
68628;BME280;55611;48.602;9.490;2023-04-05T00:01:14;97400;;;2.9;55
68628;BME280;55611;48.602;9.490;2023-04-05T00:03:45;97400;;;2.9;55
68628;BME280;55611;48.602;9.490;2023-04-05T00:06:15;97400;;;2.9;55
68628;BME280;55611;48.602;9.490;2023-04-05T00:08:46;97400;;;2.9;55
68628;BME280;55611;48.602;9.490;2023-04-05T00:11:16;97400;;;2.9;55
68628;BME280;55611;48.602;9.490;2023-04-05T00:13:47;97390;;;2.8;55
68628;BME280;55611;48.602;9.490;2023-04-05T00:16:17;97390;;;2.8;55
68628;BME280;55611;48.602;9.490;2023-04-05T00:18:48;97390;;;2.8;55
68628;BME280;55611;48.602;9.490;2023-04-05T00:21:19;97390;;;2.7;55
68628;BME280;55611;48.602;9.490;2023-04-05T00:23:49;97380;;;2.7;55
68628;BME280;55611;48.602;9.490;2023-04-05T00:26:20;97380;;;2.7;55
68628;BME280;55611;48.602;9.490;2023-04-05T00:28:50;97380;;;2.7;55
68628;BME280;55611;48.602;9.490;2023-04-05T00:31:20;97370;;;2.6;55.5
68628;BME280;55611;48.602;9.490;2023-04-05T00:33:51;97370;;;2.7;55.5
68628;BME280;55611;48.602;9.490;2023-04-05T00:36:21;97370;;;2.6;55.5
68628;BME280;55611;48.602;9.490;2023-04-05T00:38:53;97370;;;2.6;55.5
68628;BME280;55611;48.602;9.490;2023-04-05T00:41:22;97370;;;2.5;55.5
68628;BME280;55611;48.602;9.490;2023-04-05T00:43:53;97370;;;2.5;55.5
68628;BME280;55611;48.602;9.490;2023-04-05T00:46:23;97370;;;2.6;55.5
68628;BME280;55611;48.602;9.490;2023-04-05T00:48:54;97370;;;2.6;55.5
68628;BME280;55611;48.602;9.490;2023-04-05T00:51:24;97370;;;2.5;55.5
68628;BME280;55611;48.602;9.490;2023-04-05T00:53:55;97370;;;2.6;55.5
68628;BME280;55611;48.602;9.490;2023-04-05T00:56:25;97360;;;2.7;55.5
68628;BME280;55611;48.602;9.490;2023-04-05T00:58:56;97360;;;2.7;55.5
68628;BME280;55611;48.602;9.490;2023-04-05T01:01:27;97360;;;2.7;55.5
68628;BME280;55611;48.602;9.490;2023-04-05T01:03:59;97360;;;2.7;55.5
68628;BME280;55611;48.602;9.490;2023-04-05T01:06:35;97350;;;2.6;55.5
68628;BME280;55611;48.602;9.490;2023-04-05T01:08:59;97350;;;2.7;55.5
68628;BME280;55611;48.602;9.490;2023-04-05T01:11:29;97340;;;2.7;55.5
68628;BME280;55611;48.602;9.490;2023-04-05T01:13:59;97340;;;2.7;55.5
68628;BME280;55611;48.602;9.490;2023-04-05T01:16:29;97340;;;2.7;55.5
68628;BME280;55611;48.602;9.490;2023-04-05T01:19:00;97340;;;2.7;55.5
68628;BME280;55611;48.602;9.490;2023-04-05T01:21:42;97340;;;2.6;55.5
68628;BME280;55611;48.602;9.490;2023-04-05T01:24:05;97330;;;2.6;55.5
68628;BME280;55611;48.602;9.490;2023-04-05T01:26:38;97330;;;2.6;55.5
68628;BME280;55611;48.602;9.490;2023-04-05T01:30:08;97330;;;2.6;55.5
68628;BME280;55611;48.602;9.490;2023-04-05T01:31:36;97330;;;2.6;55.5
68628;BME280;55611;48.602;9.490;2023-04-05T01:34:06;97320;;;2.6;55.5
68628;BME280;55611;48.602;9.490;2023-04-05T01:36:36;97320;;;2.6;55.5
68628;BME280;55611;48.602;9.490;2023-04-05T01:39:04;97320;;;2.5;55.5
68628;BME280;55611;48.602;9.490;2023-04-05T01:41:35;97320;;;2.5;55.5
68628;BME280;55611;48.602;9.490;2023-04-05T01:44:05;97320;;;2.5;55.5
68628;BME280;55611;48.602;9.490;2023-04-05T01:46:36;97320;;;2.4;55.5
68628;BME280;55611;48.602;9.490;2023-04-05T01:49:06;97310;;;2.4;55.5
68628;BME280;55611;48.602;9.490;2023-04-05T01:51:39;97310;;;2.5;55.5
68628;BME280;55611;48.602;9.490;2023-04-05T01:54:08;97310;;;2.5;55.5
68628;BME280;55611;48.602;9.490;2023-04-05T01:56:38;97310;;;2.5;55.5
68628;BME280;55611;48.602;9.490;2023-04-05T01:59:08;97310;;;2.3;55.5
68628;BME280;55611;48.602;9.490;2023-04-05T02:01:39;97300;;;2.3;55.5
68628;BME280;55611;48.602;9.490;2023-04-05T02:04:09;97310;;;2.3;56
68628;BME280;55611;48.602;9.490;2023-04-05T02:06:40;97300;;;2.2;56
68628;BME280;55611;48.602;9.490;2023-04-05T02:09:10;97300;;;2.1;56
68628;BME280;55611;48.602;9.490;2023-04-05T02:11:41;97290;;;2.1;56
68628;BME280;55611;48.602;9.490;2023-04-05T02:14:11;97290;;;2.2;55.5
68628;BME280;55611;48.602;9.490;2023-04-05T02:16:42;97300;;;2.2;55.5
68628;BME280;55611;48.602;9.490;2023-04-05T02:19:12;97290;;;2.1;55.5
68628;BME280;55611;48.602;9.490;2023-04-05T02:21:43;97290;;;2.1;55.5
68628;BME280;55611;48.602;9.490;2023-04-05T02:24:13;97290;;;2.1;55.5
68628;BME280;55611;48.602;9.490;2023-04-05T02:26:44;97290;;;2;55.5
68628;BME280;55611;48.602;9.490;2023-04-05T02:29:14;97290;;;2;55.5
68628;BME280;55611;48.602;9.490;2023-04-05T02:31:45;97290;;;2.2;55.5
68628;BME280;55611;48.602;9.490;2023-04-05T02:34:15;97290;;;2.4;55.5
68628;BME280;55611;48.602;9.490;2023-04-05T02:36:47;97290;;;2.3;56
68628;BME280;55611;48.602;9.490;2023-04-05T02:39:17;97280;;;2.2;56
68628;BME280;55611;48.602;9.490;2023-04-05T02:41:47;97290;;;2.2;56
68628;BME280;55611;48.602;9.490;2023-04-05T02:44:18;97280;;;2;56
68628;BME280;55611;48.602;9.490;2023-04-05T02:46:48;97280;;;1.8;56
68628;BME280;55611;48.602;9.490;2023-04-05T02:49:19;97280;;;1.8;56
68628;BME280;55611;48.602;9.490;2023-04-05T02:51:49;97280;;;1.7;56
68628;BME280;55611;48.602;9.490;2023-04-05T02:54:20;97280;;;1.8;56
68628;BME280;55611;48.602;9.490;2023-04-05T02:56:50;97280;;;1.9;56
68628;BME280;55611;48.602;9.490;2023-04-05T02:59:21;97280;;;1.9;56
68628;BME280;55611;48.602;9.490;2023-04-05T03:01:51;97280;;;1.8;56
68628;BME280;55611;48.602;9.490;2023-04-05T03:04:22;97280;;;1.8;56
68628;BME280;55611;48.602;9.490;2023-04-05T03:06:52;97280;;;1.9;56
68628;BME280;55611;48.602;9.490;2023-04-05T03:09:26;97280;;;1.8;56
68628;BME280;55611;48.602;9.490;2023-04-05T03:11:53;97280;;;1.7;56
68628;BME280;55611;48.602;9.490;2023-04-05T03:14:24;97270;;;1.7;56
68628;BME280;55611;48.602;9.490;2023-04-05T03:16:54;97270;;;1.8;56
68628;BME280;55611;48.602;9.490;2023-04-05T03:19:25;97270;;;1.8;56
68628;BME280;55611;48.602;9.490;2023-04-05T03:21:55;97270;;;1.8;56
68628;BME280;55611;48.602;9.490;2023-04-05T03:24:26;97270;;;1.7;56
68628;BME280;55611;48.602;9.490;2023-04-05T03:26:58;97270;;;1.6;56
68628;BME280;55611;48.602;9.490;2023-04-05T03:29:27;97280;;;1.6;56
68628;BME280;55611;48.602;9.490;2023-04-05T03:31:57;97280;;;1.6;56
68628;BME280;55611;48.602;9.490;2023-04-05T03:34:28;97270;;;1.6;56
68628;BME280;55611;48.602;9.490;2023-04-05T03:36:58;97280;;;1.6;56
68628;BME280;55611;48.602;9.490;2023-04-05T03:39:29;97270;;;1.7;56
68628;BME280;55611;48.602;9.490;2023-04-05T03:41:59;97270;;;1.6;56
68628;BME280;55611;48.602;9.490;2023-04-05T03:44:30;97270;;;1.6;55.5
68628;BME280;55611;48.602;9.490;2023-04-05T03:47:01;97270;;;1.6;55.5
68628;BME280;55611;48.602;9.490;2023-04-05T03:49:31;97270;;;1.5;55.5
68628;BME280;55611;48.602;9.490;2023-04-05T03:52:01;97270;;;1.4;56
68628;BME280;55611;48.602;9.490;2023-04-05T03:54:32;97270;;;1.4;56
68628;BME280;55611;48.602;9.490;2023-04-05T03:57:02;97270;;;1.3;56
68628;BME280;55611;48.602;9.490;2023-04-05T03:59:33;97270;;;1.3;56
68628;BME280;55611;48.602;9.490;2023-04-05T04:02:03;97270;;;1.2;56
68628;BME280;55611;48.602;9.490;2023-04-05T04:04:34;97270;;;1.2;56
68628;BME280;55611;48.602;9.490;2023-04-05T04:07:05;97270;;;1.2;56
68628;BME280;55611;48.602;9.490;2023-04-05T04:09:35;97270;;;1.1;56
68628;BME280;55611;48.602;9.490;2023-04-05T04:12:06;97270;;;1.2;56
68628;BME280;55611;48.602;9.490;2023-04-05T04:14:36;97280;;;1.2;56
68628;BME280;55611;48.602;9.490;2023-04-05T04:17:07;97270;;;1.1;56
68628;BME280;55611;48.602;9.490;2023-04-05T04:19:37;97270;;;1.1;56
68628;BME280;55611;48.602;9.490;2023-04-05T04:22:08;97280;;;1;56
68628;BME280;55611;48.602;9.490;2023-04-05T04:24:38;97280;;;1;56
68628;BME280;55611;48.602;9.490;2023-04-05T04:27:09;97280;;;1;56
68628;BME280;55611;48.602;9.490;2023-04-05T04:29:39;97270;;;1.1;56
68628;BME280;55611;48.602;9.490;2023-04-05T04:32:10;97270;;;1.1;56
68628;BME280;55611;48.602;9.490;2023-04-05T04:34:40;97280;;;1.2;56
68628;BME280;55611;48.602;9.490;2023-04-05T04:37:14;97280;;;1.3;56
68628;BME280;55611;48.602;9.490;2023-04-05T04:39:41;97280;;;1.3;56
68628;BME280;55611;48.602;9.490;2023-04-05T04:42:12;97280;;;1.3;56
68628;BME280;55611;48.602;9.490;2023-04-05T04:44:42;97280;;;1.3;56
68628;BME280;55611;48.602;9.490;2023-04-05T04:47:13;97280;;;1.3;56
68628;BME280;55611;48.602;9.490;2023-04-05T04:49:43;97280;;;1.2;56
68628;BME280;55611;48.602;9.490;2023-04-05T04:52:14;97290;;;1.2;56
68628;BME280;55611;48.602;9.490;2023-04-05T04:54:44;97280;;;1.2;56
68628;BME280;55611;48.602;9.490;2023-04-05T04:57:15;97280;;;1.1;56
68628;BME280;55611;48.602;9.490;2023-04-05T04:59:45;97280;;;1.1;56
68628;BME280;55611;48.602;9.490;2023-04-05T05:02:16;97280;;;1.2;56
68628;BME280;55611;48.602;9.490;2023-04-05T05:04:46;97280;;;1.2;56
68628;BME280;55611;48.602;9.490;2023-04-05T05:07:17;97280;;;1.2;56
68628;BME280;55611;48.602;9.490;2023-04-05T05:09:47;97280;;;1.2;56
68628;BME280;55611;48.602;9.490;2023-04-05T05:12:18;97280;;;1.3;56
68628;BME280;55611;48.602;9.490;2023-04-05T05:14:48;97280;;;1.3;56
68628;BME280;55611;48.602;9.490;2023-04-05T05:17:19;97280;;;1.4;56
68628;BME280;55611;48.602;9.490;2023-04-05T05:19:49;97280;;;1.4;56
68628;BME280;55611;48.602;9.490;2023-04-05T05:22:20;97280;;;1.3;56
68628;BME280;55611;48.602;9.490;2023-04-05T05:24:50;97270;;;1.4;56
68628;BME280;55611;48.602;9.490;2023-04-05T05:27:21;97270;;;1.5;56.5
68628;BME280;55611;48.602;9.490;2023-04-05T05:29:52;97270;;;1.6;56.5
68628;BME280;55611;48.602;9.490;2023-04-05T05:32:22;97270;;;1.7;56.5
68628;BME280;55611;48.602;9.490;2023-04-05T05:34:53;97280;;;1.9;56
68628;BME280;55611;48.602;9.490;2023-04-05T05:37:31;97280;;;2;56
68628;BME280;55611;48.602;9.490;2023-04-05T05:39:54;97280;;;2.1;56.5
68628;BME280;55611;48.602;9.490;2023-04-05T05:42:24;97280;;;2.1;56.5
68628;BME280;55611;48.602;9.490;2023-04-05T05:44:55;97280;;;2.2;56.5
68628;BME280;55611;48.602;9.490;2023-04-05T05:47:25;97280;;;2.2;56.5
68628;BME280;55611;48.602;9.490;2023-04-05T05:49:56;97290;;;2.2;56.5
68628;BME280;55611;48.602;9.490;2023-04-05T05:52:26;97300;;;2.3;56.5
68628;BME280;55611;48.602;9.490;2023-04-05T05:54:57;97300;;;2.2;56.5
68628;BME280;55611;48.602;9.490;2023-04-05T05:57:27;97300;;;2.1;56.5
68628;BME280;55611;48.602;9.490;2023-04-05T05:59:58;97300;;;2;56.5
68628;BME280;55611;48.602;9.490;2023-04-05T06:02:28;97300;;;1.9;56.5
68628;BME280;55611;48.602;9.490;2023-04-05T06:04:59;97310;;;1.9;56.5
68628;BME280;55611;48.602;9.490;2023-04-05T06:07:29;97300;;;2;56.5
68628;BME280;55611;48.602;9.490;2023-04-05T06:10:00;97300;;;2;56.5
68628;BME280;55611;48.602;9.490;2023-04-05T06:12:30;97300;;;2.2;56.5
68628;BME280;55611;48.602;9.490;2023-04-05T06:15:01;97300;;;2.3;56.5
68628;BME280;55611;48.602;9.490;2023-04-05T06:17:31;97300;;;2.4;56.5
68628;BME280;55611;48.602;9.490;2023-04-05T06:27:44;97290;;;2.8;57
68628;BME280;55611;48.602;9.490;2023-04-05T06:30:15;97290;;;2.9;57
68628;BME280;55611;48.602;9.490;2023-04-05T06:35:04;97290;;;3.2;57
68628;BME280;55611;48.602;9.490;2023-04-05T06:37:34;97290;;;3.3;57
68628;BME280;55611;48.602;9.490;2023-04-05T06:40:05;97290;;;3.3;57
68628;BME280;55611;48.602;9.490;2023-04-05T06:42:35;97290;;;3.4;57
68628;BME280;55611;48.602;9.490;2023-04-05T06:47:37;97300;;;3.6;57
68628;BME280;55611;48.602;9.490;2023-04-05T06:50:07;97300;;;3.6;57
68628;BME280;55611;48.602;9.490;2023-04-05T06:52:37;97300;;;3.3;57
68628;BME280;55611;48.602;9.490;2023-04-05T06:55:08;97300;;;3.2;57
68628;BME280;55611;48.602;9.490;2023-04-05T06:57:38;97300;;;3;57.5
68628;BME280;55611;48.602;9.490;2023-04-05T07:00:10;97300;;;3.1;57
68628;BME280;55611;48.602;9.490;2023-04-05T07:02:39;97300;;;3.2;57
68628;BME280;55611;48.602;9.490;2023-04-05T07:05:10;97300;;;3.2;57
68628;BME280;55611;48.602;9.490;2023-04-05T07:07:41;97300;;;3.3;57
68628;BME280;55611;48.602;9.490;2023-04-05T07:10:11;97300;;;3.4;57
68628;BME280;55611;48.602;9.490;2023-04-05T07:20:12;97300;;;3.8;57
68628;BME280;55611;48.602;9.490;2023-04-05T07:22:43;97300;;;3.9;57
68628;BME280;55611;48.602;9.490;2023-04-05T07:25:13;97300;;;4;57
68628;BME280;55611;48.602;9.490;2023-04-05T07:30:14;97290;;;4.2;57
68628;BME280;55611;48.602;9.490;2023-04-05T07:32:45;97290;;;4.3;57
68628;BME280;55611;48.602;9.490;2023-04-05T07:35:15;97300;;;4.3;57
68628;BME280;55611;48.602;9.490;2023-04-05T07:37:46;97300;;;4.4;57
68628;BME280;55611;48.602;9.490;2023-04-05T07:40:16;97300;;;4.5;57.5
68628;BME280;55611;48.602;9.490;2023-04-05T07:42:47;97300;;;4.6;57.5
68628;BME280;55611;48.602;9.490;2023-04-05T07:45:17;97290;;;4.7;57.5
68628;BME280;55611;48.602;9.490;2023-04-05T07:47:48;97290;;;4.8;57.5
68628;BME280;55611;48.602;9.490;2023-04-05T07:50:18;97300;;;4.9;57.5
68628;BME280;55611;48.602;9.490;2023-04-05T07:52:49;97290;;;4.9;57.5
68628;BME280;55611;48.602;9.490;2023-04-05T07:55:19;97290;;;5;57.5
68628;BME280;55611;48.602;9.490;2023-04-05T07:57:50;97290;;;5.2;57.5
68628;BME280;55611;48.602;9.490;2023-04-05T08:00:20;97290;;;5.2;57.5
68628;BME280;55611;48.602;9.490;2023-04-05T08:02:51;97300;;;5.3;57.5
68628;BME280;55611;48.602;9.490;2023-04-05T08:05:21;97300;;;5.4;57.5
68628;BME280;55611;48.602;9.490;2023-04-05T08:07:52;97300;;;5.6;57.5
68628;BME280;55611;48.602;9.490;2023-04-05T08:10:23;97300;;;5.7;57.5
68628;BME280;55611;48.602;9.490;2023-04-05T08:12:53;97300;;;5.8;57.5
68628;BME280;55611;48.602;9.490;2023-04-05T08:15:23;97290;;;5.8;57.5
68628;BME280;55611;48.602;9.490;2023-04-05T08:17:54;97300;;;6.1;57.5
68628;BME280;55611;48.602;9.490;2023-04-05T08:20:24;97290;;;6.2;57.5
68628;BME280;55611;48.602;9.490;2023-04-05T08:22:55;97290;;;6.3;57.5
68628;BME280;55611;48.602;9.490;2023-04-05T08:25:25;97290;;;6.5;57
68628;BME280;55611;48.602;9.490;2023-04-05T08:27:56;97290;;;6.5;57
68628;BME280;55611;48.602;9.490;2023-04-05T08:30:26;97290;;;6.6;57
68628;BME280;55611;48.602;9.490;2023-04-05T08:32:57;97290;;;6.8;57
68628;BME280;55611;48.602;9.490;2023-04-05T08:35:27;97290;;;6.9;57
68628;BME280;55611;48.602;9.490;2023-04-05T08:37:58;97280;;;6.9;57
68628;BME280;55611;48.602;9.490;2023-04-05T08:40:32;97280;;;7;57
68628;BME280;55611;48.602;9.490;2023-04-05T08:43:02;97280;;;7;57
68628;BME280;55611;48.602;9.490;2023-04-05T08:45:29;97280;;;7.2;57
68628;BME280;55611;48.602;9.490;2023-04-05T08:48:00;97280;;;7.3;57
68628;BME280;55611;48.602;9.490;2023-04-05T08:50:30;97290;;;7.3;57
68628;BME280;55611;48.602;9.490;2023-04-05T08:53:01;97290;;;7.4;57
68628;BME280;55611;48.602;9.490;2023-04-05T08:55:32;97290;;;7.4;57
68628;BME280;55611;48.602;9.490;2023-04-05T08:58:02;97290;;;7.6;57
68628;BME280;55611;48.602;9.490;2023-04-05T09:00:33;97290;;;7.6;57
68628;BME280;55611;48.602;9.490;2023-04-05T09:03:03;97290;;;7.6;57
68628;BME280;55611;48.602;9.490;2023-04-05T09:05:35;97280;;;7.8;57
68628;BME280;55611;48.602;9.490;2023-04-05T09:08:04;97290;;;7.9;57
68628;BME280;55611;48.602;9.490;2023-04-05T09:10:35;97280;;;8;57
68628;BME280;55611;48.602;9.490;2023-04-05T09:13:05;97280;;;8.2;57
68628;BME280;55611;48.602;9.490;2023-04-05T09:15:36;97280;;;8.2;57
68628;BME280;55611;48.602;9.490;2023-04-05T09:18:06;97280;;;8.2;57
68628;BME280;55611;48.602;9.490;2023-04-05T09:20:37;97290;;;8.1;57
68628;BME280;55611;48.602;9.490;2023-04-05T09:23:07;97290;;;8.1;57
68628;BME280;55611;48.602;9.490;2023-04-05T09:25:38;97290;;;8.2;57
68628;BME280;55611;48.602;9.490;2023-04-05T09:28:08;97280;;;8.2;57
68628;BME280;55611;48.602;9.490;2023-04-05T09:30:42;97280;;;8.3;57
68628;BME280;55611;48.602;9.490;2023-04-05T09:33:09;97280;;;8.4;57
68628;BME280;55611;48.602;9.490;2023-04-05T09:35:40;97280;;;8.4;57
68628;BME280;55611;48.602;9.490;2023-04-05T09:38:10;97270;;;8.3;57
68628;BME280;55611;48.602;9.490;2023-04-05T09:40:42;97280;;;8.3;57
68628;BME280;55611;48.602;9.490;2023-04-05T09:43:12;97280;;;8.3;56.5
68628;BME280;55611;48.602;9.490;2023-04-05T09:45:42;97270;;;8.3;56.5
68628;BME280;55611;48.602;9.490;2023-04-05T09:48:12;97270;;;8.3;56.5
68628;BME280;55611;48.602;9.490;2023-04-05T09:50:43;97260;;;8.4;56.5
68628;BME280;55611;48.602;9.490;2023-04-05T09:53:13;97260;;;8.5;56.5
68628;BME280;55611;48.602;9.490;2023-04-05T09:55:44;97260;;;8.7;56.5
68628;BME280;55611;48.602;9.490;2023-04-05T09:58:18;97270;;;8.8;56.5
68628;BME280;55611;48.602;9.490;2023-04-05T10:00:48;97260;;;8.9;57
68628;BME280;55611;48.602;9.490;2023-04-05T10:03:15;97260;;;9;57
68628;BME280;55611;48.602;9.490;2023-04-05T10:05:46;97250;;;9.2;57
68628;BME280;55611;48.602;9.490;2023-04-05T10:08:17;97260;;;9.4;57
68628;BME280;55611;48.602;9.490;2023-04-05T10:10:47;97250;;;9.3;57
68628;BME280;55611;48.602;9.490;2023-04-05T10:13:17;97260;;;9.3;57
68628;BME280;55611;48.602;9.490;2023-04-05T10:15:48;97250;;;9.3;57
68628;BME280;55611;48.602;9.490;2023-04-05T10:18:20;97250;;;9.3;56.5
68628;BME280;55611;48.602;9.490;2023-04-05T10:20:49;97250;;;9.3;56.5
68628;BME280;55611;48.602;9.490;2023-04-05T10:23:21;97250;;;9.3;56.5
68628;BME280;55611;48.602;9.490;2023-04-05T10:26:07;97250;;;9.2;56.5
68628;BME280;55611;48.602;9.490;2023-04-05T10:28:36;97250;;;9.2;56.5
68628;BME280;55611;48.602;9.490;2023-04-05T10:30:52;97250;;;9.2;56
68628;BME280;55611;48.602;9.490;2023-04-05T10:33:25;97240;;;9.3;56
68628;BME280;55611;48.602;9.490;2023-04-05T10:36:11;97240;;;9.4;56
68628;BME280;55611;48.602;9.490;2023-04-05T10:38:24;97240;;;9.5;56.5
68628;BME280;55611;48.602;9.490;2023-04-05T10:40:56;97240;;;9.4;56.5
68628;BME280;55611;48.602;9.490;2023-04-05T10:43:24;97240;;;9.4;56.5
68628;BME280;55611;48.602;9.490;2023-04-05T10:45:54;97240;;;9.6;56.5
68628;BME280;55611;48.602;9.490;2023-04-05T10:48:33;97240;;;9.6;56.5
68628;BME280;55611;48.602;9.490;2023-04-05T10:50:55;97240;;;9.8;56.5
68628;BME280;55611;48.602;9.490;2023-04-05T10:53:26;97240;;;9.7;56.5
68628;BME280;55611;48.602;9.490;2023-04-05T10:55:56;97230;;;9.6;56.5
68628;BME280;55611;48.602;9.490;2023-04-05T10:58:27;97240;;;9.6;56.5
68628;BME280;55611;48.602;9.490;2023-04-05T11:00:57;97240;;;9.6;56
68628;BME280;55611;48.602;9.490;2023-04-05T11:03:39;97230;;;9.6;56
68628;BME280;55611;48.602;9.490;2023-04-05T11:06:16;97230;;;9.7;56
68628;BME280;55611;48.602;9.490;2023-04-05T11:08:29;97230;;;9.8;56
68628;BME280;55611;48.602;9.490;2023-04-05T11:10:59;97230;;;9.9;56
68628;BME280;55611;48.602;9.490;2023-04-05T11:14:01;97220;;;9.8;56
68628;BME280;55611;48.602;9.490;2023-04-05T11:16:07;97220;;;9.7;56
68628;BME280;55611;48.602;9.490;2023-04-05T11:18:31;97220;;;9.7;55.5
68628;BME280;55611;48.602;9.490;2023-04-05T11:21:05;97210;;;9.8;55.5
68628;BME280;55611;48.602;9.490;2023-04-05T11:23:32;97220;;;9.9;55.5
68628;BME280;55611;48.602;9.490;2023-04-05T11:26:03;97220;;;9.9;55.5
68628;BME280;55611;48.602;9.490;2023-04-05T11:28:34;97210;;;10.1;55.5
68628;BME280;55611;48.602;9.490;2023-04-05T11:31:19;97210;;;10.3;55.5
68628;BME280;55611;48.602;9.490;2023-04-05T11:33:36;97210;;;10.4;55.5
68628;BME280;55611;48.602;9.490;2023-04-05T11:36:05;97200;;;10.4;55.5
68628;BME280;55611;48.602;9.490;2023-04-05T11:38:35;97200;;;10.5;55.5
68628;BME280;55611;48.602;9.490;2023-04-05T11:41:10;97200;;;10.5;55.5
68628;BME280;55611;48.602;9.490;2023-04-05T11:43:36;97200;;;10.5;55.5
68628;BME280;55611;48.602;9.490;2023-04-05T11:46:07;97190;;;10.3;55.5
68628;BME280;55611;48.602;9.490;2023-04-05T11:48:37;97190;;;10.3;55.5
68628;BME280;55611;48.602;9.490;2023-04-05T11:51:08;97190;;;10.2;55.5
68628;BME280;55611;48.602;9.490;2023-04-05T11:53:38;97190;;;10.2;55.5
68628;BME280;55611;48.602;9.490;2023-04-05T11:56:09;97190;;;10.2;55.5
68628;BME280;55611;48.602;9.490;2023-04-05T11:58:39;97180;;;10.1;55.5
68628;BME280;55611;48.602;9.490;2023-04-05T12:01:10;97180;;;10.2;55.5
68628;BME280;55611;48.602;9.490;2023-04-05T12:03:40;97180;;;10.4;55.5
68628;BME280;55611;48.602;9.490;2023-04-05T12:06:11;97180;;;10.4;55.5
68628;BME280;55611;48.602;9.490;2023-04-05T12:08:42;97180;;;10.4;55.5
68628;BME280;55611;48.602;9.490;2023-04-05T12:11:12;97170;;;10.3;55.5
68628;BME280;55611;48.602;9.490;2023-04-05T12:13:44;97170;;;10.4;55.5
68628;BME280;55611;48.602;9.490;2023-04-05T12:16:13;97160;;;10.5;55.5
68628;BME280;55611;48.602;9.490;2023-04-05T12:18:43;97160;;;10.7;55.5
68628;BME280;55611;48.602;9.490;2023-04-05T12:21:14;97170;;;11;55.5
68628;BME280;55611;48.602;9.490;2023-04-05T12:23:44;97170;;;10.9;55.5
68628;BME280;55611;48.602;9.490;2023-04-05T12:26:15;97160;;;10.8;55
68628;BME280;55611;48.602;9.490;2023-04-05T12:28:53;97160;;;10.9;55
68628;BME280;55611;48.602;9.490;2023-04-05T12:31:16;97160;;;10.9;55
68628;BME280;55611;48.602;9.490;2023-04-05T12:33:46;97160;;;10.9;55
68628;BME280;55611;48.602;9.490;2023-04-05T12:36:17;97160;;;10.9;55
68628;BME280;55611;48.602;9.490;2023-04-05T12:38:47;97160;;;11.1;55
68628;BME280;55611;48.602;9.490;2023-04-05T12:41:25;97160;;;11.2;55
68628;BME280;55611;48.602;9.490;2023-04-05T12:43:48;97160;;;11.2;55
68628;BME280;55611;48.602;9.490;2023-04-05T12:46:19;97160;;;11.1;55
68628;BME280;55611;48.602;9.490;2023-04-05T12:48:49;97150;;;11;55
68628;BME280;55611;48.602;9.490;2023-04-05T12:51:20;97140;;;11;55
68628;BME280;55611;48.602;9.490;2023-04-05T12:53:51;97140;;;11.1;55
68628;BME280;55611;48.602;9.490;2023-04-05T12:56:21;97140;;;11;55
68628;BME280;55611;48.602;9.490;2023-04-05T12:58:51;97140;;;11.2;55
68628;BME280;55611;48.602;9.490;2023-04-05T13:01:22;97130;;;11.2;55
68628;BME280;55611;48.602;9.490;2023-04-05T13:03:52;97130;;;11.3;55
68628;BME280;55611;48.602;9.490;2023-04-05T13:06:23;97130;;;11.3;54.5
68628;BME280;55611;48.602;9.490;2023-04-05T13:08:54;97130;;;11.3;54.5
68628;BME280;55611;48.602;9.490;2023-04-05T13:11:24;97120;;;11.1;54.5
68628;BME280;55611;48.602;9.490;2023-04-05T13:13:55;97120;;;11.1;54.5
68628;BME280;55611;48.602;9.490;2023-04-05T13:16:25;97120;;;11.1;54.5
68628;BME280;55611;48.602;9.490;2023-04-05T13:18:56;97120;;;11.2;54.5
68628;BME280;55611;48.602;9.490;2023-04-05T13:21:26;97110;;;11.3;54.5
68628;BME280;55611;48.602;9.490;2023-04-05T13:23:57;97110;;;11.3;54.5
68628;BME280;55611;48.602;9.490;2023-04-05T13:26:27;97110;;;11.4;54.5
68628;BME280;55611;48.602;9.490;2023-04-05T13:28:58;97110;;;11.4;54
68628;BME280;55611;48.602;9.490;2023-04-05T13:31:28;97110;;;11.3;54
68628;BME280;55611;48.602;9.490;2023-04-05T13:33:59;97100;;;11.3;54
68628;BME280;55611;48.602;9.490;2023-04-05T13:36:29;97100;;;11.2;54
68628;BME280;55611;48.602;9.490;2023-04-05T13:39:00;97100;;;11.3;54
68628;BME280;55611;48.602;9.490;2023-04-05T13:41:30;97100;;;11.3;54
68628;BME280;55611;48.602;9.490;2023-04-05T13:44:01;97100;;;11.2;54
68628;BME280;55611;48.602;9.490;2023-04-05T13:46:31;97100;;;11.2;54.5
68628;BME280;55611;48.602;9.490;2023-04-05T13:49:02;97090;;;11.2;54.5
68628;BME280;55611;48.602;9.490;2023-04-05T13:51:32;97100;;;11.4;54
68628;BME280;55611;48.602;9.490;2023-04-05T13:54:03;97100;;;11.4;54.5
68628;BME280;55611;48.602;9.490;2023-04-05T13:56:33;97090;;;11.5;54
68628;BME280;55611;48.602;9.490;2023-04-05T13:59:04;97080;;;11.6;54
68628;BME280;55611;48.602;9.490;2023-04-05T14:01:34;97080;;;11.7;54
68628;BME280;55611;48.602;9.490;2023-04-05T14:04:05;97080;;;11.7;54
68628;BME280;55611;48.602;9.490;2023-04-05T14:06:35;97080;;;11.6;54
68628;BME280;55611;48.602;9.490;2023-04-05T14:09:06;97080;;;11.7;54
68628;BME280;55611;48.602;9.490;2023-04-05T14:11:36;97080;;;11.7;54
68628;BME280;55611;48.602;9.490;2023-04-05T14:14:07;97080;;;11.7;54
68628;BME280;55611;48.602;9.490;2023-04-05T14:16:38;97080;;;11.8;54
68628;BME280;55611;48.602;9.490;2023-04-05T14:19:08;97070;;;11.8;53.5
68628;BME280;55611;48.602;9.490;2023-04-05T14:21:39;97080;;;11.9;53.5
68628;BME280;55611;48.602;9.490;2023-04-05T14:24:09;97080;;;12;53.5
68628;BME280;55611;48.602;9.490;2023-04-05T14:26:39;97080;;;11.9;53.5
68628;BME280;55611;48.602;9.490;2023-04-05T14:29:10;97070;;;11.8;53.5
68628;BME280;55611;48.602;9.490;2023-04-05T14:31:41;97080;;;11.8;53.5
68628;BME280;55611;48.602;9.490;2023-04-05T14:34:11;97080;;;11.7;53.5
68628;BME280;55611;48.602;9.490;2023-04-05T14:36:42;97080;;;11.7;53.5
68628;BME280;55611;48.602;9.490;2023-04-05T14:39:12;97070;;;11.8;53.5
68628;BME280;55611;48.602;9.490;2023-04-05T14:41:43;97070;;;11.8;53.5
68628;BME280;55611;48.602;9.490;2023-04-05T14:44:13;97060;;;11.8;53.5
68628;BME280;55611;48.602;9.490;2023-04-05T14:46:44;97060;;;11.7;53.5
68628;BME280;55611;48.602;9.490;2023-04-05T14:49:14;97060;;;11.8;53.5
68628;BME280;55611;48.602;9.490;2023-04-05T14:51:45;97050;;;11.8;53
68628;BME280;55611;48.602;9.490;2023-04-05T14:54:15;97050;;;11.8;53.5
68628;BME280;55611;48.602;9.490;2023-04-05T14:56:46;97060;;;11.8;53.5
68628;BME280;55611;48.602;9.490;2023-04-05T14:59:16;97050;;;11.7;53.5
68628;BME280;55611;48.602;9.490;2023-04-05T15:01:47;97060;;;11.7;53.5